sensor_id;sensor_type;location;lat;lon;timestamp;P1;durP1;ratioP1;P2;durP2;ratioP2
66272;SDS011;58450;52.150;4.466;2023-10-09T00:02:07;11.00;;;6.25;;
66272;SDS011;58450;52.150;4.466;2023-10-09T00:04:37;11.57;;;6.03;;
66272;SDS011;58450;52.150;4.466;2023-10-09T00:07:07;12.32;;;6.30;;
66272;SDS011;58450;52.150;4.466;2023-10-09T00:09:36;10.02;;;5.30;;
66272;SDS011;58450;52.150;4.466;2023-10-09T00:12:13;10.05;;;5.20;;
66272;SDS011;58450;52.150;4.466;2023-10-09T00:14:42;10.15;;;5.30;;
66272;SDS011;58450;52.150;4.466;2023-10-09T00:17:14;10.07;;;5.00;;
66272;SDS011;58450;52.150;4.466;2023-10-09T00:19:46;12.65;;;5.97;;
66272;SDS011;58450;52.150;4.466;2023-10-09T00:22:17;11.55;;;5.32;;
66272;SDS011;58450;52.150;4.466;2023-10-09T00:24:55;9.73;;;5.18;;
66272;SDS011;58450;52.150;4.466;2023-10-09T00:27:37;10.98;;;5.40;;
66272;SDS011;58450;52.150;4.466;2023-10-09T00:30:09;13.32;;;5.75;;
66272;SDS011;58450;52.150;4.466;2023-10-09T00:32:41;13.30;;;5.47;;
66272;SDS011;58450;52.150;4.466;2023-10-09T00:35:12;13.45;;;5.78;;
66272;SDS011;58450;52.150;4.466;2023-10-09T00:37:57;11.23;;;5.65;;
66272;SDS011;58450;52.150;4.466;2023-10-09T00:40:32;11.52;;;5.30;;
66272;SDS011;58450;52.150;4.466;2023-10-09T00:43:03;12.25;;;4.90;;
66272;SDS011;58450;52.150;4.466;2023-10-09T00:45:38;11.25;;;4.88;;
66272;SDS011;58450;52.150;4.466;2023-10-09T00:48:06;12.43;;;5.10;;
66272;SDS011;58450;52.150;4.466;2023-10-09T00:50:36;11.52;;;4.70;;
66272;SDS011;58450;52.150;4.466;2023-10-09T00:53:12;10.13;;;4.88;;
66272;SDS011;58450;52.150;4.466;2023-10-09T00:55:44;10.00;;;4.57;;
66272;SDS011;58450;52.150;4.466;2023-10-09T00:58:21;10.07;;;4.65;;
66272;SDS011;58450;52.150;4.466;2023-10-09T01:00:56;10.82;;;5.20;;
66272;SDS011;58450;52.150;4.466;2023-10-09T01:03:25;10.45;;;4.60;;
66272;SDS011;58450;52.150;4.466;2023-10-09T01:05:55;12.80;;;4.93;;
66272;SDS011;58450;52.150;4.466;2023-10-09T01:08:42;11.40;;;4.50;;
66272;SDS011;58450;52.150;4.466;2023-10-09T01:11:21;11.77;;;5.03;;
66272;SDS011;58450;52.150;4.466;2023-10-09T01:13:49;13.63;;;5.15;;
66272;SDS011;58450;52.150;4.466;2023-10-09T01:16:25;12.20;;;4.75;;
66272;SDS011;58450;52.150;4.466;2023-10-09T01:18:57;11.13;;;4.50;;
66272;SDS011;58450;52.150;4.466;2023-10-09T01:21:27;11.90;;;4.60;;
66272;SDS011;58450;52.150;4.466;2023-10-09T01:23:58;11.23;;;4.65;;
66272;SDS011;58450;52.150;4.466;2023-10-09T01:26:30;10.23;;;4.90;;
66272;SDS011;58450;52.150;4.466;2023-10-09T01:29:00;12.20;;;4.90;;
66272;SDS011;58450;52.150;4.466;2023-10-09T01:31:29;10.63;;;4.72;;
66272;SDS011;58450;52.150;4.466;2023-10-09T01:34:03;9.45;;;4.45;;
66272;SDS011;58450;52.150;4.466;2023-10-09T01:36:35;10.55;;;4.50;;
66272;SDS011;58450;52.150;4.466;2023-10-09T01:39:06;11.02;;;5.00;;
66272;SDS011;58450;52.150;4.466;2023-10-09T01:41:47;11.80;;;4.78;;
66272;SDS011;58450;52.150;4.466;2023-10-09T01:44:17;11.07;;;4.57;;
66272;SDS011;58450;52.150;4.466;2023-10-09T01:46:45;10.90;;;4.47;;
66272;SDS011;58450;52.150;4.466;2023-10-09T01:49:13;11.27;;;4.22;;
66272;SDS011;58450;52.150;4.466;2023-10-09T01:51:47;11.13;;;5.10;;
66272;SDS011;58450;52.150;4.466;2023-10-09T01:54:17;8.82;;;4.80;;
66272;SDS011;58450;52.150;4.466;2023-10-09T01:56:59;11.77;;;4.90;;
66272;SDS011;58450;52.150;4.466;2023-10-09T01:59:31;10.73;;;4.43;;
66272;SDS011;58450;52.150;4.466;2023-10-09T02:02:04;12.85;;;4.45;;
66272;SDS011;58450;52.150;4.466;2023-10-09T02:04:40;9.73;;;4.82;;
66272;SDS011;58450;52.150;4.466;2023-10-09T02:07:07;10.73;;;4.72;;
66272;SDS011;58450;52.150;4.466;2023-10-09T02:09:36;11.77;;;4.50;;
66272;SDS011;58450;52.150;4.466;2023-10-09T02:12:12;12.02;;;4.72;;
66272;SDS011;58450;52.150;4.466;2023-10-09T02:14:40;11.52;;;4.70;;
66272;SDS011;58450;52.150;4.466;2023-10-09T02:17:09;12.80;;;4.53;;
66272;SDS011;58450;52.150;4.466;2023-10-09T02:19:44;9.75;;;5.00;;
66272;SDS011;58450;52.150;4.466;2023-10-09T02:22:15;8.77;;;4.75;;
66272;SDS011;58450;52.150;4.466;2023-10-09T02:24:45;11.23;;;5.22;;
66272;SDS011;58450;52.150;4.466;2023-10-09T02:27:24;12.30;;;5.03;;
66272;SDS011;58450;52.150;4.466;2023-10-09T02:30:13;12.02;;;5.05;;
66272;SDS011;58450;52.150;4.466;2023-10-09T02:32:45;10.90;;;5.05;;
66272;SDS011;58450;52.150;4.466;2023-10-09T02:35:19;8.98;;;3.97;;
66272;SDS011;58450;52.150;4.466;2023-10-09T02:37:54;9.60;;;4.70;;
66272;SDS011;58450;52.150;4.466;2023-10-09T02:40:27;12.25;;;5.03;;
66272;SDS011;58450;52.150;4.466;2023-10-09T02:42:58;9.65;;;4.90;;
66272;SDS011;58450;52.150;4.466;2023-10-09T02:45:26;10.15;;;4.93;;
66272;SDS011;58450;52.150;4.466;2023-10-09T02:48:00;11.07;;;4.93;;
66272;SDS011;58450;52.150;4.466;2023-10-09T02:50:36;11.40;;;4.70;;
66272;SDS011;58450;52.150;4.466;2023-10-09T02:53:08;11.63;;;5.07;;
66272;SDS011;58450;52.150;4.466;2023-10-09T02:55:45;12.18;;;5.13;;
66272;SDS011;58450;52.150;4.466;2023-10-09T02:58:37;12.48;;;5.47;;
66272;SDS011;58450;52.150;4.466;2023-10-09T03:01:09;12.10;;;4.93;;
66272;SDS011;58450;52.150;4.466;2023-10-09T03:03:39;9.77;;;4.57;;
66272;SDS011;58450;52.150;4.466;2023-10-09T03:06:11;8.88;;;4.88;;
66272;SDS011;58450;52.150;4.466;2023-10-09T03:08:39;11.00;;;4.88;;
66272;SDS011;58450;52.150;4.466;2023-10-09T03:11:08;9.85;;;4.88;;
66272;SDS011;58450;52.150;4.466;2023-10-09T03:13:41;8.63;;;4.55;;
66272;SDS011;58450;52.150;4.466;2023-10-09T03:16:10;9.30;;;4.30;;
66272;SDS011;58450;52.150;4.466;2023-10-09T03:18:41;10.63;;;4.82;;
66272;SDS011;58450;52.150;4.466;2023-10-09T03:21:09;11.50;;;5.22;;
66272;SDS011;58450;52.150;4.466;2023-10-09T03:23:36;9.93;;;5.25;;
66272;SDS011;58450;52.150;4.466;2023-10-09T03:26:04;14.18;;;5.43;;
66272;SDS011;58450;52.150;4.466;2023-10-09T03:28:35;11.38;;;5.28;;
66272;SDS011;58450;52.150;4.466;2023-10-09T03:31:02;10.35;;;5.47;;
66272;SDS011;58450;52.150;4.466;2023-10-09T03:33:32;12.30;;;5.60;;
66272;SDS011;58450;52.150;4.466;2023-10-09T03:36:01;11.27;;;5.38;;
66272;SDS011;58450;52.150;4.466;2023-10-09T03:38:33;11.93;;;5.25;;
66272;SDS011;58450;52.150;4.466;2023-10-09T03:41:02;11.30;;;4.93;;
66272;SDS011;58450;52.150;4.466;2023-10-09T03:43:32;13.02;;;5.38;;
66272;SDS011;58450;52.150;4.466;2023-10-09T03:46:04;13.43;;;5.38;;
66272;SDS011;58450;52.150;4.466;2023-10-09T03:48:46;9.70;;;4.88;;
66272;SDS011;58450;52.150;4.466;2023-10-09T03:51:14;10.80;;;5.25;;
66272;SDS011;58450;52.150;4.466;2023-10-09T03:53:47;13.00;;;5.30;;
66272;SDS011;58450;52.150;4.466;2023-10-09T03:56:15;11.68;;;4.78;;
66272;SDS011;58450;52.150;4.466;2023-10-09T03:58:45;12.15;;;5.30;;
66272;SDS011;58450;52.150;4.466;2023-10-09T04:01:15;12.63;;;5.63;;
66272;SDS011;58450;52.150;4.466;2023-10-09T04:03:49;12.77;;;5.50;;
66272;SDS011;58450;52.150;4.466;2023-10-09T04:06:20;14.63;;;6.03;;
66272;SDS011;58450;52.150;4.466;2023-10-09T04:08:48;11.90;;;5.30;;
66272;SDS011;58450;52.150;4.466;2023-10-09T04:11:17;11.30;;;5.80;;
66272;SDS011;58450;52.150;4.466;2023-10-09T04:13:50;11.80;;;4.88;;
66272;SDS011;58450;52.150;4.466;2023-10-09T04:16:19;11.73;;;5.65;;
66272;SDS011;58450;52.150;4.466;2023-10-09T04:19:00;12.60;;;5.57;;
66272;SDS011;58450;52.150;4.466;2023-10-09T04:21:34;12.93;;;5.40;;
66272;SDS011;58450;52.150;4.466;2023-10-09T04:24:01;12.27;;;5.45;;
66272;SDS011;58450;52.150;4.466;2023-10-09T04:26:49;12.80;;;5.50;;
66272;SDS011;58450;52.150;4.466;2023-10-09T04:29:25;11.77;;;5.38;;
66272;SDS011;58450;52.150;4.466;2023-10-09T04:32:04;10.02;;;4.97;;
66272;SDS011;58450;52.150;4.466;2023-10-09T04:34:41;15.93;;;5.43;;
66272;SDS011;58450;52.150;4.466;2023-10-09T04:37:15;14.95;;;5.85;;
66272;SDS011;58450;52.150;4.466;2023-10-09T04:40:02;15.70;;;5.40;;
66272;SDS011;58450;52.150;4.466;2023-10-09T04:42:38;12.93;;;5.28;;
66272;SDS011;58450;52.150;4.466;2023-10-09T04:45:13;12.23;;;5.18;;
66272;SDS011;58450;52.150;4.466;2023-10-09T04:48:06;11.93;;;5.18;;
66272;SDS011;58450;52.150;4.466;2023-10-09T04:50:35;11.85;;;5.53;;
66272;SDS011;58450;52.150;4.466;2023-10-09T04:53:14;11.98;;;4.97;;
66272;SDS011;58450;52.150;4.466;2023-10-09T04:55:50;11.43;;;5.53;;
66272;SDS011;58450;52.150;4.466;2023-10-09T04:58:20;13.35;;;5.20;;
66272;SDS011;58450;52.150;4.466;2023-10-09T05:00:53;12.32;;;5.25;;
66272;SDS011;58450;52.150;4.466;2023-10-09T05:03:41;11.40;;;5.70;;
66272;SDS011;58450;52.150;4.466;2023-10-09T05:06:11;13.18;;;5.53;;
66272;SDS011;58450;52.150;4.466;2023-10-09T05:08:58;14.05;;;5.05;;
66272;SDS011;58450;52.150;4.466;2023-10-09T05:11:34;9.93;;;4.85;;
66272;SDS011;58450;52.150;4.466;2023-10-09T05:14:16;12.05;;;5.38;;
66272;SDS011;58450;52.150;4.466;2023-10-09T05:16:54;11.88;;;5.00;;
66272;SDS011;58450;52.150;4.466;2023-10-09T05:19:27;13.13;;;5.40;;
66272;SDS011;58450;52.150;4.466;2023-10-09T05:22:11;13.20;;;5.18;;
66272;SDS011;58450;52.150;4.466;2023-10-09T05:27:23;12.48;;;5.60;;
66272;SDS011;58450;52.150;4.466;2023-10-09T05:30:11;12.70;;;5.47;;
66272;SDS011;58450;52.150;4.466;2023-10-09T05:32:52;15.63;;;5.53;;
66272;SDS011;58450;52.150;4.466;2023-10-09T05:38:06;11.48;;;4.90;;
66272;SDS011;58450;52.150;4.466;2023-10-09T05:40:49;12.57;;;4.85;;
66272;SDS011;58450;52.150;4.466;2023-10-09T05:43:20;12.52;;;5.47;;
66272;SDS011;58450;52.150;4.466;2023-10-09T05:46:05;10.82;;;4.68;;
66272;SDS011;58450;52.150;4.466;2023-10-09T05:48:42;11.00;;;5.35;;
66272;SDS011;58450;52.150;4.466;2023-10-09T05:51:22;11.38;;;4.80;;
66272;SDS011;58450;52.150;4.466;2023-10-09T05:54:08;15.50;;;5.15;;
66272;SDS011;58450;52.150;4.466;2023-10-09T05:56:49;11.88;;;5.65;;
66272;SDS011;58450;52.150;4.466;2023-10-09T05:59:47;10.50;;;5.07;;
66272;SDS011;58450;52.150;4.466;2023-10-09T06:02:32;13.27;;;5.50;;
66272;SDS011;58450;52.150;4.466;2023-10-09T06:05:19;13.27;;;4.82;;
66272;SDS011;58450;52.150;4.466;2023-10-09T06:08:01;9.17;;;4.60;;
66272;SDS011;58450;52.150;4.466;2023-10-09T06:10:32;11.75;;;5.15;;
66272;SDS011;58450;52.150;4.466;2023-10-09T06:13:08;11.32;;;4.78;;
66272;SDS011;58450;52.150;4.466;2023-10-09T06:15:50;9.77;;;4.88;;
66272;SDS011;58450;52.150;4.466;2023-10-09T06:18:35;10.10;;;4.72;;
66272;SDS011;58450;52.150;4.466;2023-10-09T06:21:08;11.68;;;4.95;;
66272;SDS011;58450;52.150;4.466;2023-10-09T06:23:52;13.25;;;4.82;;
66272;SDS011;58450;52.150;4.466;2023-10-09T06:26:39;12.15;;;5.28;;
66272;SDS011;58450;52.150;4.466;2023-10-09T06:29:16;14.35;;;5.53;;
66272;SDS011;58450;52.150;4.466;2023-10-09T06:32:01;10.88;;;5.20;;
66272;SDS011;58450;52.150;4.466;2023-10-09T06:35:00;10.82;;;5.15;;
66272;SDS011;58450;52.150;4.466;2023-10-09T06:37:46;12.32;;;5.28;;
66272;SDS011;58450;52.150;4.466;2023-10-09T06:40:33;13.20;;;5.65;;
66272;SDS011;58450;52.150;4.466;2023-10-09T06:43:21;14.05;;;5.43;;
66272;SDS011;58450;52.150;4.466;2023-10-09T06:45:54;12.80;;;5.20;;
66272;SDS011;58450;52.150;4.466;2023-10-09T06:48:44;15.20;;;5.47;;
66272;SDS011;58450;52.150;4.466;2023-10-09T06:51:12;16.50;;;5.30;;
66272;SDS011;58450;52.150;4.466;2023-10-09T06:54:04;12.60;;;4.97;;
66272;SDS011;58450;52.150;4.466;2023-10-09T06:56:33;11.32;;;4.70;;
66272;SDS011;58450;52.150;4.466;2023-10-09T06:59:29;13.18;;;4.95;;
66272;SDS011;58450;52.150;4.466;2023-10-09T07:02:28;10.75;;;5.10;;
66272;SDS011;58450;52.150;4.466;2023-10-09T07:04:57;9.15;;;4.35;;
66272;SDS011;58450;52.150;4.466;2023-10-09T07:07:36;11.02;;;4.97;;
66272;SDS011;58450;52.150;4.466;2023-10-09T07:10:17;12.77;;;4.80;;
66272;SDS011;58450;52.150;4.466;2023-10-09T07:12:59;13.48;;;5.78;;
66272;SDS011;58450;52.150;4.466;2023-10-09T07:15:28;13.60;;;5.45;;
66272;SDS011;58450;52.150;4.466;2023-10-09T07:18:12;11.18;;;4.93;;
66272;SDS011;58450;52.150;4.466;2023-10-09T07:20:49;13.45;;;5.10;;
66272;SDS011;58450;52.150;4.466;2023-10-09T07:23:27;12.75;;;4.88;;
66272;SDS011;58450;52.150;4.466;2023-10-09T07:26:03;9.55;;;4.70;;
66272;SDS011;58450;52.150;4.466;2023-10-09T07:29:03;10.35;;;5.32;;
66272;SDS011;58450;52.150;4.466;2023-10-09T07:31:45;10.15;;;5.13;;
66272;SDS011;58450;52.150;4.466;2023-10-09T07:34:13;13.23;;;5.28;;
66272;SDS011;58450;52.150;4.466;2023-10-09T07:37:19;11.63;;;5.43;;
66272;SDS011;58450;52.150;4.466;2023-10-09T07:39:49;12.82;;;5.20;;
66272;SDS011;58450;52.150;4.466;2023-10-09T07:42:25;12.38;;;5.60;;
66272;SDS011;58450;52.150;4.466;2023-10-09T07:44:59;11.25;;;4.88;;
66272;SDS011;58450;52.150;4.466;2023-10-09T07:47:38;10.45;;;5.10;;
66272;SDS011;58450;52.150;4.466;2023-10-09T07:50:25;13.70;;;5.13;;
66272;SDS011;58450;52.150;4.466;2023-10-09T07:53:04;15.65;;;5.38;;
66272;SDS011;58450;52.150;4.466;2023-10-09T07:55:53;14.95;;;5.22;;
66272;SDS011;58450;52.150;4.466;2023-10-09T07:58:25;10.52;;;4.65;;
66272;SDS011;58450;52.150;4.466;2023-10-09T08:00:53;8.52;;;4.32;;
66272;SDS011;58450;52.150;4.466;2023-10-09T08:03:41;13.65;;;4.90;;
66272;SDS011;58450;52.150;4.466;2023-10-09T08:06:11;10.13;;;4.60;;
66272;SDS011;58450;52.150;4.466;2023-10-09T08:08:57;12.07;;;4.53;;
66272;SDS011;58450;52.150;4.466;2023-10-09T08:11:43;10.93;;;4.90;;
66272;SDS011;58450;52.150;4.466;2023-10-09T08:15:01;10.20;;;4.47;;
66272;SDS011;58450;52.150;4.466;2023-10-09T08:17:44;9.68;;;4.47;;
66272;SDS011;58450;52.150;4.466;2023-10-09T08:20:17;8.90;;;4.32;;
66272;SDS011;58450;52.150;4.466;2023-10-09T08:22:51;9.55;;;4.30;;
66272;SDS011;58450;52.150;4.466;2023-10-09T08:25:21;11.35;;;4.40;;
66272;SDS011;58450;52.150;4.466;2023-10-09T08:27:58;10.73;;;4.10;;
66272;SDS011;58450;52.150;4.466;2023-10-09T08:30:42;10.75;;;4.80;;
66272;SDS011;58450;52.150;4.466;2023-10-09T08:33:16;13.40;;;5.03;;
66272;SDS011;58450;52.150;4.466;2023-10-09T08:36:06;10.57;;;4.63;;
66272;SDS011;58450;52.150;4.466;2023-10-09T08:38:35;10.18;;;4.50;;
66272;SDS011;58450;52.150;4.466;2023-10-09T08:41:06;9.70;;;4.40;;
66272;SDS011;58450;52.150;4.466;2023-10-09T08:43:47;9.93;;;4.60;;
66272;SDS011;58450;52.150;4.466;2023-10-09T08:46:21;10.52;;;4.63;;
66272;SDS011;58450;52.150;4.466;2023-10-09T08:48:52;11.80;;;4.33;;
66272;SDS011;58450;52.150;4.466;2023-10-09T08:51:23;10.13;;;4.35;;
66272;SDS011;58450;52.150;4.466;2023-10-09T08:53:52;10.02;;;4.50;;
66272;SDS011;58450;52.150;4.466;2023-10-09T08:56:20;11.75;;;4.40;;
66272;SDS011;58450;52.150;4.466;2023-10-09T08:58:50;10.95;;;3.90;;
66272;SDS011;58450;52.150;4.466;2023-10-09T09:01:19;12.43;;;4.53;;
66272;SDS011;58450;52.150;4.466;2023-10-09T09:03:50;11.70;;;4.35;;
66272;SDS011;58450;52.150;4.466;2023-10-09T09:06:22;11.02;;;4.35;;
66272;SDS011;58450;52.150;4.466;2023-10-09T09:08:51;9.02;;;3.88;;
66272;SDS011;58450;52.150;4.466;2023-10-09T09:11:25;11.52;;;4.30;;
66272;SDS011;58450;52.150;4.466;2023-10-09T09:14:02;11.63;;;4.30;;
66272;SDS011;58450;52.150;4.466;2023-10-09T09:16:33;11.02;;;4.53;;
66272;SDS011;58450;52.150;4.466;2023-10-09T09:19:02;9.18;;;3.88;;
66272;SDS011;58450;52.150;4.466;2023-10-09T09:21:43;10.13;;;4.40;;
66272;SDS011;58450;52.150;4.466;2023-10-09T09:24:20;9.45;;;4.30;;
66272;SDS011;58450;52.150;4.466;2023-10-09T09:26:57;10.02;;;4.20;;
66272;SDS011;58450;52.150;4.466;2023-10-09T09:29:38;9.65;;;4.03;;
66272;SDS011;58450;52.150;4.466;2023-10-09T09:32:26;8.05;;;4.03;;
66272;SDS011;58450;52.150;4.466;2023-10-09T09:35:02;8.65;;;3.97;;
66272;SDS011;58450;52.150;4.466;2023-10-09T09:37:31;9.20;;;4.28;;
66272;SDS011;58450;52.150;4.466;2023-10-09T09:40:16;9.07;;;4.53;;
66272;SDS011;58450;52.150;4.466;2023-10-09T09:42:55;7.97;;;4.18;;
66272;SDS011;58450;52.150;4.466;2023-10-09T09:45:31;10.07;;;4.35;;
66272;SDS011;58450;52.150;4.466;2023-10-09T09:48:02;8.55;;;4.00;;
66272;SDS011;58450;52.150;4.466;2023-10-09T09:50:32;10.43;;;4.50;;
66272;SDS011;58450;52.150;4.466;2023-10-09T09:53:04;10.20;;;4.18;;
66272;SDS011;58450;52.150;4.466;2023-10-09T09:55:34;7.93;;;3.67;;
66272;SDS011;58450;52.150;4.466;2023-10-09T09:58:07;8.00;;;3.75;;
66272;SDS011;58450;52.150;4.466;2023-10-09T10:00:46;9.02;;;4.18;;
66272;SDS011;58450;52.150;4.466;2023-10-09T10:03:22;8.80;;;3.97;;
66272;SDS011;58450;52.150;4.466;2023-10-09T10:05:58;9.32;;;4.30;;
66272;SDS011;58450;52.150;4.466;2023-10-09T10:08:31;9.50;;;3.65;;
66272;SDS011;58450;52.150;4.466;2023-10-09T10:10:59;8.30;;;3.97;;
66272;SDS011;58450;52.150;4.466;2023-10-09T10:16:30;8.68;;;4.00;;
66272;SDS011;58450;52.150;4.466;2023-10-09T10:19:03;8.52;;;3.88;;
66272;SDS011;58450;52.150;4.466;2023-10-09T10:21:47;9.43;;;4.90;;
66272;SDS011;58450;52.150;4.466;2023-10-09T10:27:19;9.88;;;4.60;;
66272;SDS011;58450;52.150;4.466;2023-10-09T10:33:02;8.77;;;3.88;;
66272;SDS011;58450;52.150;4.466;2023-10-09T10:35:39;8.68;;;3.85;;
66272;SDS011;58450;52.150;4.466;2023-10-09T10:38:30;9.07;;;3.95;;
66272;SDS011;58450;52.150;4.466;2023-10-09T10:41:09;11.38;;;4.15;;
66272;SDS011;58450;52.150;4.466;2023-10-09T10:43:40;8.85;;;3.92;;
66272;SDS011;58450;52.150;4.466;2023-10-09T10:46:25;10.07;;;4.40;;
66272;SDS011;58450;52.150;4.466;2023-10-09T10:49:04;11.85;;;4.20;;
66272;SDS011;58450;52.150;4.466;2023-10-09T10:51:43;8.23;;;3.85;;
66272;SDS011;58450;52.150;4.466;2023-10-09T10:54:21;9.77;;;4.40;;
66272;SDS011;58450;52.150;4.466;2023-10-09T10:57:14;8.23;;;3.97;;
66272;SDS011;58450;52.150;4.466;2023-10-09T10:59:55;8.07;;;3.87;;
66272;SDS011;58450;52.150;4.466;2023-10-09T11:02:59;9.07;;;3.78;;
66272;SDS011;58450;52.150;4.466;2023-10-09T11:05:40;6.45;;;3.70;;
66272;SDS011;58450;52.150;4.466;2023-10-09T11:08:17;8.02;;;4.13;;
66272;SDS011;58450;52.150;4.466;2023-10-09T11:10:53;7.97;;;3.85;;
66272;SDS011;58450;52.150;4.466;2023-10-09T11:13:41;11.60;;;4.60;;
66272;SDS011;58450;52.150;4.466;2023-10-09T11:16:20;12.32;;;4.70;;
66272;SDS011;58450;52.150;4.466;2023-10-09T11:19:09;10.55;;;4.53;;
66272;SDS011;58450;52.150;4.466;2023-10-09T11:21:49;10.45;;;4.57;;
66272;SDS011;58450;52.150;4.466;2023-10-09T11:24:47;11.25;;;4.38;;
66272;SDS011;58450;52.150;4.466;2023-10-09T11:27:37;9.43;;;4.10;;
66272;SDS011;58450;52.150;4.466;2023-10-09T11:30:16;7.80;;;4.00;;
66272;SDS011;58450;52.150;4.466;2023-10-09T11:33:02;11.38;;;4.45;;
66272;SDS011;58450;52.150;4.466;2023-10-09T11:35:33;9.00;;;4.07;;
66272;SDS011;58450;52.150;4.466;2023-10-09T11:38:01;9.98;;;4.30;;
66272;SDS011;58450;52.150;4.466;2023-10-09T11:40:47;10.05;;;4.22;;
66272;SDS011;58450;52.150;4.466;2023-10-09T11:43:47;10.05;;;4.43;;
66272;SDS011;58450;52.150;4.466;2023-10-09T11:46:20;12.20;;;5.00;;
66272;SDS011;58450;52.150;4.466;2023-10-09T11:49:13;10.73;;;4.57;;
66272;SDS011;58450;52.150;4.466;2023-10-09T11:52:10;12.15;;;4.82;;
66272;SDS011;58450;52.150;4.466;2023-10-09T11:54:54;9.18;;;4.32;;
66272;SDS011;58450;52.150;4.466;2023-10-09T11:57:25;9.02;;;4.25;;
66272;SDS011;58450;52.150;4.466;2023-10-09T11:59:56;9.38;;;3.95;;
66272;SDS011;58450;52.150;4.466;2023-10-09T12:02:25;9.07;;;4.03;;
66272;SDS011;58450;52.150;4.466;2023-10-09T12:04:54;10.07;;;4.47;;
66272;SDS011;58450;52.150;4.466;2023-10-09T12:07:23;11.40;;;4.78;;
66272;SDS011;58450;52.150;4.466;2023-10-09T12:09:53;10.63;;;4.45;;
66272;SDS011;58450;52.150;4.466;2023-10-09T12:12:22;11.57;;;4.65;;
66272;SDS011;58450;52.150;4.466;2023-10-09T12:14:53;9.50;;;3.90;;
66272;SDS011;58450;52.150;4.466;2023-10-09T12:17:21;9.95;;;4.82;;
66272;SDS011;58450;52.150;4.466;2023-10-09T12:19:51;10.27;;;4.85;;
66272;SDS011;58450;52.150;4.466;2023-10-09T12:22:22;9.73;;;4.22;;
66272;SDS011;58450;52.150;4.466;2023-10-09T12:24:52;11.00;;;4.40;;
66272;SDS011;58450;52.150;4.466;2023-10-09T12:27:20;15.00;;;4.50;;
66272;SDS011;58450;52.150;4.466;2023-10-09T12:29:47;11.98;;;4.55;;
66272;SDS011;58450;52.150;4.466;2023-10-09T12:32:16;11.38;;;4.55;;
66272;SDS011;58450;52.150;4.466;2023-10-09T12:34:46;9.75;;;4.15;;
66272;SDS011;58450;52.150;4.466;2023-10-09T12:37:16;11.93;;;4.55;;
66272;SDS011;58450;52.150;4.466;2023-10-09T12:39:46;10.30;;;4.40;;
66272;SDS011;58450;52.150;4.466;2023-10-09T12:42:14;9.93;;;4.60;;
66272;SDS011;58450;52.150;4.466;2023-10-09T12:44:42;9.93;;;4.28;;
66272;SDS011;58450;52.150;4.466;2023-10-09T12:47:10;9.80;;;4.22;;
66272;SDS011;58450;52.150;4.466;2023-10-09T12:49:39;10.75;;;4.60;;
66272;SDS011;58450;52.150;4.466;2023-10-09T12:52:07;8.25;;;4.25;;
66272;SDS011;58450;52.150;4.466;2023-10-09T12:54:41;11.30;;;4.70;;
66272;SDS011;58450;52.150;4.466;2023-10-09T12:57:12;10.63;;;4.70;;
66272;SDS011;58450;52.150;4.466;2023-10-09T12:59:40;9.73;;;4.57;;
66272;SDS011;58450;52.150;4.466;2023-10-09T13:02:11;10.82;;;4.90;;
66272;SDS011;58450;52.150;4.466;2023-10-09T13:04:55;10.30;;;4.85;;
66272;SDS011;58450;52.150;4.466;2023-10-09T13:07:23;9.07;;;4.68;;
66272;SDS011;58450;52.150;4.466;2023-10-09T13:09:51;13.40;;;4.90;;
66272;SDS011;58450;52.150;4.466;2023-10-09T13:12:32;8.23;;;4.22;;
66272;SDS011;58450;52.150;4.466;2023-10-09T13:15:00;10.85;;;4.45;;
66272;SDS011;58450;52.150;4.466;2023-10-09T13:17:27;9.07;;;4.10;;
66272;SDS011;58450;52.150;4.466;2023-10-09T13:19:56;9.27;;;4.55;;
66272;SDS011;58450;52.150;4.466;2023-10-09T13:22:24;9.10;;;4.47;;
66272;SDS011;58450;52.150;4.466;2023-10-09T13:24:51;10.60;;;4.43;;
66272;SDS011;58450;52.150;4.466;2023-10-09T13:27:29;9.05;;;4.45;;
66272;SDS011;58450;52.150;4.466;2023-10-09T13:30:00;10.52;;;4.18;;
66272;SDS011;58450;52.150;4.466;2023-10-09T13:32:31;9.50;;;3.97;;
66272;SDS011;58450;52.150;4.466;2023-10-09T13:35:03;8.82;;;4.05;;
66272;SDS011;58450;52.150;4.466;2023-10-09T13:37:31;9.52;;;4.10;;
66272;SDS011;58450;52.150;4.466;2023-10-09T13:40:02;7.60;;;4.30;;
66272;SDS011;58450;52.150;4.466;2023-10-09T13:42:35;10.25;;;4.32;;
66272;SDS011;58450;52.150;4.466;2023-10-09T13:45:03;8.98;;;4.45;;
66272;SDS011;58450;52.150;4.466;2023-10-09T13:47:41;9.68;;;4.53;;
66272;SDS011;58450;52.150;4.466;2023-10-09T13:50:12;8.77;;;4.43;;
66272;SDS011;58450;52.150;4.466;2023-10-09T13:52:40;7.03;;;3.72;;
66272;SDS011;58450;52.150;4.466;2023-10-09T13:55:08;10.88;;;4.47;;
66272;SDS011;58450;52.150;4.466;2023-10-09T13:57:42;9.07;;;4.25;;
66272;SDS011;58450;52.150;4.466;2023-10-09T14:00:11;10.55;;;4.53;;
66272;SDS011;58450;52.150;4.466;2023-10-09T14:02:43;9.20;;;4.05;;
66272;SDS011;58450;52.150;4.466;2023-10-09T14:05:13;9.52;;;4.00;;
66272;SDS011;58450;52.150;4.466;2023-10-09T14:07:41;10.63;;;4.43;;
66272;SDS011;58450;52.150;4.466;2023-10-09T14:10:08;11.50;;;4.40;;
66272;SDS011;58450;52.150;4.466;2023-10-09T14:12:43;11.95;;;4.50;;
66272;SDS011;58450;52.150;4.466;2023-10-09T14:15:11;10.02;;;4.55;;
66272;SDS011;58450;52.150;4.466;2023-10-09T14:17:43;7.85;;;3.65;;
66272;SDS011;58450;52.150;4.466;2023-10-09T14:20:13;9.73;;;4.30;;
66272;SDS011;58450;52.150;4.466;2023-10-09T14:22:56;9.20;;;4.38;;
66272;SDS011;58450;52.150;4.466;2023-10-09T14:25:23;9.35;;;4.43;;
66272;SDS011;58450;52.150;4.466;2023-10-09T14:27:55;11.77;;;4.65;;
66272;SDS011;58450;52.150;4.466;2023-10-09T14:30:23;10.32;;;5.18;;
66272;SDS011;58450;52.150;4.466;2023-10-09T14:32:58;11.55;;;4.78;;
66272;SDS011;58450;52.150;4.466;2023-10-09T14:35:29;9.18;;;4.55;;
66272;SDS011;58450;52.150;4.466;2023-10-09T14:37:59;10.98;;;4.55;;
66272;SDS011;58450;52.150;4.466;2023-10-09T14:40:30;11.32;;;5.13;;
66272;SDS011;58450;52.150;4.466;2023-10-09T14:42:58;17.67;;;5.30;;
66272;SDS011;58450;52.150;4.466;2023-10-09T14:45:25;12.85;;;5.32;;
66272;SDS011;58450;52.150;4.466;2023-10-09T14:47:53;15.85;;;5.40;;
66272;SDS011;58450;52.150;4.466;2023-10-09T14:50:21;13.05;;;4.65;;
66272;SDS011;58450;52.150;4.466;2023-10-09T14:52:50;11.32;;;5.15;;
66272;SDS011;58450;52.150;4.466;2023-10-09T14:55:18;12.45;;;5.35;;
66272;SDS011;58450;52.150;4.466;2023-10-09T14:57:47;12.63;;;4.90;;
66272;SDS011;58450;52.150;4.466;2023-10-09T15:00:15;13.23;;;4.75;;
66272;SDS011;58450;52.150;4.466;2023-10-09T15:02:49;10.23;;;4.60;;
66272;SDS011;58450;52.150;4.466;2023-10-09T15:05:17;11.88;;;5.70;;
66272;SDS011;58450;52.150;4.466;2023-10-09T15:07:44;12.90;;;5.40;;
66272;SDS011;58450;52.150;4.466;2023-10-09T15:10:13;13.50;;;5.57;;
66272;SDS011;58450;52.150;4.466;2023-10-09T15:12:42;10.77;;;5.25;;
66272;SDS011;58450;52.150;4.466;2023-10-09T15:15:12;12.00;;;5.30;;
66272;SDS011;58450;52.150;4.466;2023-10-09T15:17:40;13.70;;;5.47;;
66272;SDS011;58450;52.150;4.466;2023-10-09T15:20:10;10.88;;;5.82;;
66272;SDS011;58450;52.150;4.466;2023-10-09T15:22:40;13.45;;;5.53;;
66272;SDS011;58450;52.150;4.466;2023-10-09T15:25:08;12.75;;;5.85;;
66272;SDS011;58450;52.150;4.466;2023-10-09T15:27:41;13.23;;;5.78;;
66272;SDS011;58450;52.150;4.466;2023-10-09T15:30:09;14.38;;;5.95;;
66272;SDS011;58450;52.150;4.466;2023-10-09T15:32:40;13.55;;;5.63;;
66272;SDS011;58450;52.150;4.466;2023-10-09T15:35:08;13.02;;;5.40;;
66272;SDS011;58450;52.150;4.466;2023-10-09T15:37:38;11.75;;;5.55;;
66272;SDS011;58450;52.150;4.466;2023-10-09T15:40:07;19.30;;;6.18;;